sensor_id;sensor_type;location;lat;lon;timestamp;pressure;altitude;pressure_sealevel;temperature;humidity
54455;BME280;40364;52.270;10.546;2022-08-01T00:01:44;100341.44;;;34.55;45.85
54455;BME280;40364;52.270;10.546;2022-08-01T00:04:11;100338.69;;;33.57;48.80
54455;BME280;40364;52.270;10.546;2022-08-01T00:06:37;100348.00;;;32.85;51.27
54455;BME280;40364;52.270;10.546;2022-08-01T00:09:04;100339.22;;;32.94;51.06
54455;BME280;40364;52.270;10.546;2022-08-01T00:11:31;100334.53;;;33.17;49.67
54455;BME280;40364;52.270;10.546;2022-08-01T00:13:58;100347.28;;;33.51;48.78
54455;BME280;40364;52.270;10.546;2022-08-01T00:16:24;100338.13;;;32.92;50.31
54455;BME280;40364;52.270;10.546;2022-08-01T00:18:53;100340.00;;;33.35;49.24
54455;BME280;40364;52.270;10.546;2022-08-01T00:21:20;100338.22;;;32.97;51.03
54455;BME280;40364;52.270;10.546;2022-08-01T00:23:47;100337.34;;;33.11;49.49
54455;BME280;40364;52.270;10.546;2022-08-01T00:26:14;100323.81;;;34.21;46.31
54455;BME280;40364;52.270;10.546;2022-08-01T00:28:41;100330.94;;;34.63;45.04
54455;BME280;40364;52.270;10.546;2022-08-01T00:31:08;100347.28;;;35.08;44.09
54455;BME280;40364;52.270;10.546;2022-08-01T00:33:34;100338.28;;;34.53;44.80
54455;BME280;40364;52.270;10.546;2022-08-01T00:36:03;100333.19;;;34.42;45.76
54455;BME280;40364;52.270;10.546;2022-08-01T00:38:29;100334.28;;;35.47;42.40
54455;BME280;40364;52.270;10.546;2022-08-01T00:40:56;100330.56;;;34.44;45.56
54455;BME280;40364;52.270;10.546;2022-08-01T00:43:23;100324.41;;;35.22;43.78
54455;BME280;40364;52.270;10.546;2022-08-01T00:45:49;100331.50;;;33.26;49.28
54455;BME280;40364;52.270;10.546;2022-08-01T00:48:16;100333.88;;;32.87;50.98
54455;BME280;40364;52.270;10.546;2022-08-01T00:50:43;100338.56;;;32.85;51.49
54455;BME280;40364;52.270;10.546;2022-08-01T00:53:11;100333.25;;;31.84;54.85
54455;BME280;40364;52.270;10.546;2022-08-01T00:55:38;100326.44;;;33.88;48.22
54455;BME280;40364;52.270;10.546;2022-08-01T00:58:05;100328.50;;;33.61;48.58
54455;BME280;40364;52.270;10.546;2022-08-01T01:00:33;100318.47;;;33.31;50.06
54455;BME280;40364;52.270;10.546;2022-08-01T01:03:00;100324.06;;;33.20;50.27
54455;BME280;40364;52.270;10.546;2022-08-01T01:05:27;100321.81;;;33.75;47.91
54455;BME280;40364;52.270;10.546;2022-08-01T01:07:59;100327.72;;;33.61;49.00
54455;BME280;40364;52.270;10.546;2022-08-01T01:10:32;100323.28;;;33.65;49.25
54455;BME280;40364;52.270;10.546;2022-08-01T01:13:05;100319.75;;;33.30;50.22
54455;BME280;40364;52.270;10.546;2022-08-01T01:15:38;100316.56;;;35.28;43.34
54455;BME280;40364;52.270;10.546;2022-08-01T01:18:10;100316.47;;;36.04;41.75
54455;BME280;40364;52.270;10.546;2022-08-01T01:20:40;100323.81;;;34.58;44.16
54455;BME280;40364;52.270;10.546;2022-08-01T01:23:21;100320.16;;;33.23;49.82
54455;BME280;40364;52.270;10.546;2022-08-01T01:26:04;100320.72;;;32.66;52.35
54455;BME280;40364;52.270;10.546;2022-08-01T01:29:02;100325.03;;;32.56;54.11
54455;BME280;40364;52.270;10.546;2022-08-01T01:31:34;100324.50;;;32.37;55.82
54455;BME280;40364;52.270;10.546;2022-08-01T01:34:03;100314.19;;;32.86;55.00
54455;BME280;40364;52.270;10.546;2022-08-01T01:36:30;100322.91;;;32.36;56.15
54455;BME280;40364;52.270;10.546;2022-08-01T01:39:00;100321.44;;;32.61;55.49
54455;BME280;40364;52.270;10.546;2022-08-01T01:41:27;100322.44;;;32.58;55.83
54455;BME280;40364;52.270;10.546;2022-08-01T01:43:55;100324.91;;;32.65;54.89
54455;BME280;40364;52.270;10.546;2022-08-01T01:46:25;100312.63;;;34.34;48.29
54455;BME280;40364;52.270;10.546;2022-08-01T01:48:55;100318.25;;;32.59;54.82
54455;BME280;40364;52.270;10.546;2022-08-01T01:51:24;100307.78;;;32.96;54.44
54455;BME280;40364;52.270;10.546;2022-08-01T01:53:52;100311.38;;;32.91;54.02
54455;BME280;40364;52.270;10.546;2022-08-01T01:56:20;100324.28;;;32.40;56.43
54455;BME280;40364;52.270;10.546;2022-08-01T01:58:50;100319.53;;;32.58;55.79
54455;BME280;40364;52.270;10.546;2022-08-01T02:01:18;100311.53;;;32.82;54.62
54455;BME280;40364;52.270;10.546;2022-08-01T02:03:48;100315.38;;;32.59;55.33
54455;BME280;40364;52.270;10.546;2022-08-01T02:06:16;100313.16;;;32.19;57.29
54455;BME280;40364;52.270;10.546;2022-08-01T02:08:44;100304.91;;;32.96;54.16
54455;BME280;40364;52.270;10.546;2022-08-01T02:11:11;100311.09;;;31.90;57.85
54455;BME280;40364;52.270;10.546;2022-08-01T02:13:46;100319.41;;;32.67;55.26
54455;BME280;40364;52.270;10.546;2022-08-01T02:16:15;100314.19;;;32.51;55.91
54455;BME280;40364;52.270;10.546;2022-08-01T02:18:42;100316.06;;;32.04;57.32
54455;BME280;40364;52.270;10.546;2022-08-01T02:21:12;100318.97;;;32.54;54.83
54455;BME280;40364;52.270;10.546;2022-08-01T02:23:40;100307.13;;;32.52;55.55
54455;BME280;40364;52.270;10.546;2022-08-01T02:26:10;100314.94;;;32.31;56.07
54455;BME280;40364;52.270;10.546;2022-08-01T02:28:47;100308.31;;;32.10;56.43
54455;BME280;40364;52.270;10.546;2022-08-01T02:31:23;100317.47;;;32.58;54.61
54455;BME280;40364;52.270;10.546;2022-08-01T02:33:58;100306.44;;;32.07;57.49
54455;BME280;40364;52.270;10.546;2022-08-01T02:36:34;100302.50;;;32.74;54.69
54455;BME280;40364;52.270;10.546;2022-08-01T02:39:03;100296.16;;;32.21;56.74
54455;BME280;40364;52.270;10.546;2022-08-01T02:41:34;100292.50;;;31.61;59.38
54455;BME280;40364;52.270;10.546;2022-08-01T02:44:07;100304.84;;;31.91;58.54
54455;BME280;40364;52.270;10.546;2022-08-01T02:46:43;100304.75;;;31.86;59.35
54455;BME280;40364;52.270;10.546;2022-08-01T02:49:16;100305.91;;;32.93;54.85
54455;BME280;40364;52.270;10.546;2022-08-01T02:51:47;100301.38;;;32.72;55.79
54455;BME280;40364;52.270;10.546;2022-08-01T02:54:24;100306.22;;;32.60;54.64
54455;BME280;40364;52.270;10.546;2022-08-01T02:56:55;100305.81;;;32.32;57.34
54455;BME280;40364;52.270;10.546;2022-08-01T02:59:24;100310.50;;;32.50;55.59
54455;BME280;40364;52.270;10.546;2022-08-01T03:01:57;100316.13;;;32.39;56.44
54455;BME280;40364;52.270;10.546;2022-08-01T03:04:25;100309.59;;;32.09;57.43
54455;BME280;40364;52.270;10.546;2022-08-01T03:06:57;100325.72;;;31.18;62.09
54455;BME280;40364;52.270;10.546;2022-08-01T03:09:35;100325.84;;;32.41;56.85
54455;BME280;40364;52.270;10.546;2022-08-01T03:12:13;100322.84;;;31.33;60.02
54455;BME280;40364;52.270;10.546;2022-08-01T03:14:49;100326.31;;;30.41;69.56
54455;BME280;40364;52.270;10.546;2022-08-01T03:17:31;100316.09;;;30.73;68.67
54455;BME280;40364;52.270;10.546;2022-08-01T03:20:03;100320.16;;;31.05;65.82
54455;BME280;40364;52.270;10.546;2022-08-01T03:22:33;100329.38;;;31.19;64.40
54455;BME280;40364;52.270;10.546;2022-08-01T03:25:05;100328.03;;;31.43;62.80
54455;BME280;40364;52.270;10.546;2022-08-01T03:27:35;100330.81;;;31.38;61.90
54455;BME280;40364;52.270;10.546;2022-08-01T03:30:04;100331.88;;;30.78;66.43
54455;BME280;40364;52.270;10.546;2022-08-01T03:32:40;100339.28;;;31.18;64.22
54455;BME280;40364;52.270;10.546;2022-08-01T03:35:18;100346.59;;;29.87;74.98
54455;BME280;40364;52.270;10.546;2022-08-01T03:37:55;100351.53;;;30.37;73.69
54455;BME280;40364;52.270;10.546;2022-08-01T03:40:35;100342.69;;;30.17;70.91
54455;BME280;40364;52.270;10.546;2022-08-01T03:43:22;100349.25;;;30.84;67.65
54455;BME280;40364;52.270;10.546;2022-08-01T03:45:58;100347.53;;;29.83;72.56
54455;BME280;40364;52.270;10.546;2022-08-01T03:48:37;100339.84;;;31.60;63.59
54455;BME280;40364;52.270;10.546;2022-08-01T03:51:14;100358.25;;;30.34;68.86
54455;BME280;40364;52.270;10.546;2022-08-01T03:53:45;100351.28;;;30.26;70.68
54455;BME280;40364;52.270;10.546;2022-08-01T03:56:19;100358.84;;;31.04;64.50
54455;BME280;40364;52.270;10.546;2022-08-01T03:58:51;100347.56;;;30.92;64.56
54455;BME280;40364;52.270;10.546;2022-08-01T04:01:20;100351.91;;;30.63;66.50
54455;BME280;40364;52.270;10.546;2022-08-01T04:03:50;100362.22;;;31.80;60.14
54455;BME280;40364;52.270;10.546;2022-08-01T04:06:24;100358.22;;;31.48;59.65
54455;BME280;40364;52.270;10.546;2022-08-01T04:08:52;100349.16;;;29.11;75.87
54455;BME280;40364;52.270;10.546;2022-08-01T04:11:24;100357.28;;;30.37;66.39
54455;BME280;40364;52.270;10.546;2022-08-01T04:13:53;100355.94;;;31.13;62.56
54455;BME280;40364;52.270;10.546;2022-08-01T04:16:22;100361.53;;;31.32;60.55
54455;BME280;40364;52.270;10.546;2022-08-01T04:18:49;100358.97;;;31.34;60.34
54455;BME280;40364;52.270;10.546;2022-08-01T04:21:25;100374.69;;;31.47;60.68
54455;BME280;40364;52.270;10.546;2022-08-01T04:24:01;100379.50;;;30.28;66.31
54455;BME280;40364;52.270;10.546;2022-08-01T04:26:32;100382.72;;;31.43;60.82
54455;BME280;40364;52.270;10.546;2022-08-01T04:29:04;100382.94;;;31.16;61.23
54455;BME280;40364;52.270;10.546;2022-08-01T04:31:33;100374.53;;;31.27;60.59
54455;BME280;40364;52.270;10.546;2022-08-01T04:34:04;100386.59;;;31.55;58.70
54455;BME280;40364;52.270;10.546;2022-08-01T04:36:33;100374.31;;;30.08;66.70
54455;BME280;40364;52.270;10.546;2022-08-01T04:39:04;100392.50;;;31.37;60.65
54455;BME280;40364;52.270;10.546;2022-08-01T04:41:32;100391.44;;;32.02;56.87
54455;BME280;40364;52.270;10.546;2022-08-01T04:44:01;100393.41;;;32.11;56.38
54455;BME280;40364;52.270;10.546;2022-08-01T04:46:28;100394.69;;;30.70;62.52
54455;BME280;40364;52.270;10.546;2022-08-01T04:48:58;100404.38;;;31.30;61.00
54455;BME280;40364;52.270;10.546;2022-08-01T04:51:26;100404.16;;;29.92;69.84
54455;BME280;40364;52.270;10.546;2022-08-01T04:53:53;100405.25;;;31.60;60.49
54455;BME280;40364;52.270;10.546;2022-08-01T04:56:29;100407.91;;;30.77;63.41
54455;BME280;40364;52.270;10.546;2022-08-01T04:58:56;100413.69;;;31.25;62.76
54455;BME280;40364;52.270;10.546;2022-08-01T05:01:36;100415.41;;;30.74;64.57
54455;BME280;40364;52.270;10.546;2022-08-01T05:04:05;100412.13;;;29.33;73.33
54455;BME280;40364;52.270;10.546;2022-08-01T05:06:32;100419.34;;;30.44;68.55
54455;BME280;40364;52.270;10.546;2022-08-01T05:08:59;100416.19;;;30.84;63.46
54455;BME280;40364;52.270;10.546;2022-08-01T05:11:25;100413.16;;;30.36;65.51
54455;BME280;40364;52.270;10.546;2022-08-01T05:13:56;100411.78;;;30.13;70.14
54455;BME280;40364;52.270;10.546;2022-08-01T05:16:23;100414.28;;;30.30;67.26
54455;BME280;40364;52.270;10.546;2022-08-01T05:18:53;100421.19;;;30.23;67.32
54455;BME280;40364;52.270;10.546;2022-08-01T05:21:20;100423.38;;;31.12;62.58
54455;BME280;40364;52.270;10.546;2022-08-01T05:23:49;100427.94;;;29.83;68.21
54455;BME280;40364;52.270;10.546;2022-08-01T05:26:16;100437.16;;;30.99;62.63
54455;BME280;40364;52.270;10.546;2022-08-01T05:28:46;100439.03;;;31.11;62.30
54455;BME280;40364;52.270;10.546;2022-08-01T05:31:16;100444.50;;;31.33;60.33
54455;BME280;40364;52.270;10.546;2022-08-01T05:33:43;100433.88;;;30.40;63.83
54455;BME280;40364;52.270;10.546;2022-08-01T05:36:18;100444.78;;;31.11;60.57
54455;BME280;40364;52.270;10.546;2022-08-01T05:38:47;100437.84;;;32.19;55.92
54455;BME280;40364;52.270;10.546;2022-08-01T05:41:18;100441.09;;;31.97;54.25
54455;BME280;40364;52.270;10.546;2022-08-01T05:43:48;100444.69;;;31.30;57.03
54455;BME280;40364;52.270;10.546;2022-08-01T05:46:21;100438.13;;;31.92;55.09
54455;BME280;40364;52.270;10.546;2022-08-01T05:49:06;100444.66;;;31.54;57.75
54455;BME280;40364;52.270;10.546;2022-08-01T05:51:47;100443.84;;;32.30;54.21
54455;BME280;40364;52.270;10.546;2022-08-01T05:54:13;100439.94;;;32.63;52.36
54455;BME280;40364;52.270;10.546;2022-08-01T05:56:42;100448.50;;;30.09;63.84
54455;BME280;40364;52.270;10.546;2022-08-01T05:59:09;100439.34;;;30.29;65.26
54455;BME280;40364;52.270;10.546;2022-08-01T06:01:38;100439.81;;;32.13;54.09
54455;BME280;40364;52.270;10.546;2022-08-01T06:11:14;100449.63;;;31.29;58.05
54455;BME280;40364;52.270;10.546;2022-08-01T06:16:56;100469.31;;;32.96;50.96
54455;BME280;40364;52.270;10.546;2022-08-01T06:19:31;100464.78;;;33.10;51.02
54455;BME280;40364;52.270;10.546;2022-08-01T06:21:58;100469.53;;;32.19;53.57
54455;BME280;40364;52.270;10.546;2022-08-01T06:24:31;100460.94;;;31.80;54.16
54455;BME280;40364;52.270;10.546;2022-08-01T06:26:58;100459.38;;;31.32;56.69
54455;BME280;40364;52.270;10.546;2022-08-01T06:29:25;100472.69;;;31.92;53.81
54455;BME280;40364;52.270;10.546;2022-08-01T06:31:53;100475.72;;;32.56;51.12
54455;BME280;40364;52.270;10.546;2022-08-01T06:34:23;100494.41;;;33.81;46.79
54455;BME280;40364;52.270;10.546;2022-08-01T06:36:49;100479.91;;;32.55;50.27
54455;BME280;40364;52.270;10.546;2022-08-01T06:39:18;100483.03;;;32.13;54.47
54455;BME280;40364;52.270;10.546;2022-08-01T06:41:48;100483.88;;;29.97;62.47
54455;BME280;40364;52.270;10.546;2022-08-01T06:44:18;100484.47;;;32.32;54.71
54455;BME280;40364;52.270;10.546;2022-08-01T06:46:47;100489.03;;;30.81;59.10
54455;BME280;40364;52.270;10.546;2022-08-01T06:49:16;100496.47;;;31.30;57.61
54455;BME280;40364;52.270;10.546;2022-08-01T06:51:43;100496.81;;;29.74;63.56
54455;BME280;40364;52.270;10.546;2022-08-01T06:54:12;100498.25;;;29.52;71.42
54455;BME280;40364;52.270;10.546;2022-08-01T06:56:39;100498.50;;;31.38;66.46
54455;BME280;40364;52.270;10.546;2022-08-01T06:59:07;100485.09;;;30.60;66.92
54455;BME280;40364;52.270;10.546;2022-08-01T07:01:37;100496.81;;;31.23;65.97
54455;BME280;40364;52.270;10.546;2022-08-01T07:04:07;100493.53;;;31.39;64.65
54455;BME280;40364;52.270;10.546;2022-08-01T07:06:42;100496.66;;;30.24;66.49
54455;BME280;40364;52.270;10.546;2022-08-01T07:09:14;100495.28;;;31.69;63.27
54455;BME280;40364;52.270;10.546;2022-08-01T07:11:43;100493.59;;;31.54;62.58
54455;BME280;40364;52.270;10.546;2022-08-01T07:14:10;100501.72;;;31.55;59.98
54455;BME280;40364;52.270;10.546;2022-08-01T07:16:47;100508.50;;;31.19;60.97
54455;BME280;40364;52.270;10.546;2022-08-01T07:19:15;100506.81;;;30.52;61.57
54455;BME280;40364;52.270;10.546;2022-08-01T07:21:58;100503.97;;;32.67;52.66
54455;BME280;40364;52.270;10.546;2022-08-01T07:24:27;100508.72;;;32.85;52.15
54455;BME280;40364;52.270;10.546;2022-08-01T07:26:58;100506.94;;;32.28;54.05
54455;BME280;40364;52.270;10.546;2022-08-01T07:29:45;100509.00;;;31.74;56.36
54455;BME280;40364;52.270;10.546;2022-08-01T07:32:23;100517.59;;;31.27;54.83
54455;BME280;40364;52.270;10.546;2022-08-01T07:35:03;100508.22;;;31.89;53.92
54455;BME280;40364;52.270;10.546;2022-08-01T07:37:32;100510.16;;;30.69;57.20
54455;BME280;40364;52.270;10.546;2022-08-01T07:40:05;100517.53;;;33.45;47.81
54455;BME280;40364;52.270;10.546;2022-08-01T07:42:35;100522.66;;;31.32;54.87
54455;BME280;40364;52.270;10.546;2022-08-01T07:45:13;100509.38;;;30.59;57.10
54455;BME280;40364;52.270;10.546;2022-08-01T07:47:43;100516.69;;;31.92;52.33
54455;BME280;40364;52.270;10.546;2022-08-01T07:50:12;100523.78;;;33.24;47.87
54455;BME280;40364;52.270;10.546;2022-08-01T07:52:53;100532.59;;;32.02;52.75
54455;BME280;40364;52.270;10.546;2022-08-01T07:55:20;100529.00;;;31.93;53.64
54455;BME280;40364;52.270;10.546;2022-08-01T07:57:47;100535.66;;;31.51;54.19
54455;BME280;40364;52.270;10.546;2022-08-01T08:00:15;100542.22;;;32.53;51.80
54455;BME280;40364;52.270;10.546;2022-08-01T08:02:42;100535.19;;;32.39;51.98
54455;BME280;40364;52.270;10.546;2022-08-01T08:05:09;100520.75;;;31.29;52.68
54455;BME280;40364;52.270;10.546;2022-08-01T08:07:36;100531.72;;;31.16;52.19
54455;BME280;40364;52.270;10.546;2022-08-01T08:10:05;100522.84;;;32.83;46.48
54455;BME280;40364;52.270;10.546;2022-08-01T08:12:32;100537.47;;;31.16;49.67
54455;BME280;40364;52.270;10.546;2022-08-01T08:14:59;100543.84;;;34.08;44.02
54455;BME280;40364;52.270;10.546;2022-08-01T08:17:26;100547.59;;;32.60;46.79
54455;BME280;40364;52.270;10.546;2022-08-01T08:19:53;100544.00;;;31.97;49.34
54455;BME280;40364;52.270;10.546;2022-08-01T08:22:20;100532.28;;;32.00;48.99
54455;BME280;40364;52.270;10.546;2022-08-01T08:24:46;100555.09;;;34.47;42.95
54455;BME280;40364;52.270;10.546;2022-08-01T08:29:44;100545.81;;;31.37;49.18
54455;BME280;40364;52.270;10.546;2022-08-01T08:32:11;100547.63;;;31.83;46.31
54455;BME280;40364;52.270;10.546;2022-08-01T08:34:38;100542.75;;;30.47;50.11
54455;BME280;40364;52.270;10.546;2022-08-01T08:37:04;100545.94;;;30.49;48.58
54455;BME280;40364;52.270;10.546;2022-08-01T08:39:31;100546.44;;;30.99;47.30
54455;BME280;40364;52.270;10.546;2022-08-01T08:41:59;100546.44;;;31.65;45.51
54455;BME280;40364;52.270;10.546;2022-08-01T08:44:27;100549.41;;;33.36;42.00
54455;BME280;40364;52.270;10.546;2022-08-01T08:46:57;100547.50;;;31.20;47.22
54455;BME280;40364;52.270;10.546;2022-08-01T08:49:26;100557.66;;;32.64;43.76
54455;BME280;40364;52.270;10.546;2022-08-01T08:51:58;100551.44;;;32.42;44.18
54455;BME280;40364;52.270;10.546;2022-08-01T08:54:25;100560.69;;;34.10;39.94
54455;BME280;40364;52.270;10.546;2022-08-01T08:56:53;100556.97;;;33.49;40.17
54455;BME280;40364;52.270;10.546;2022-08-01T08:59:20;100561.19;;;32.44;42.69
54455;BME280;40364;52.270;10.546;2022-08-01T09:01:49;100564.28;;;32.56;43.98
54455;BME280;40364;52.270;10.546;2022-08-01T09:04:18;100567.81;;;33.74;40.57
54455;BME280;40364;52.270;10.546;2022-08-01T09:06:47;100574.00;;;34.28;39.37
54455;BME280;40364;52.270;10.546;2022-08-01T09:09:13;100563.78;;;32.28;43.81
54455;BME280;40364;52.270;10.546;2022-08-01T09:11:40;100575.38;;;33.01;41.64
54455;BME280;40364;52.270;10.546;2022-08-01T09:14:09;100575.53;;;33.27;42.10
54455;BME280;40364;52.270;10.546;2022-08-01T09:16:40;100579.22;;;33.28;41.72
54455;BME280;40364;52.270;10.546;2022-08-01T09:19:10;100591.25;;;34.17;41.13
54455;BME280;40364;52.270;10.546;2022-08-01T09:21:38;100587.72;;;33.72;41.48
54455;BME280;40364;52.270;10.546;2022-08-01T09:24:13;100598.81;;;33.09;42.23
54455;BME280;40364;52.270;10.546;2022-08-01T09:26:41;100601.94;;;33.55;41.17
54455;BME280;40364;52.270;10.546;2022-08-01T09:29:17;100601.13;;;31.74;48.01
54455;BME280;40364;52.270;10.546;2022-08-01T09:31:44;100606.91;;;34.10;42.06
54455;BME280;40364;52.270;10.546;2022-08-01T09:34:12;100610.88;;;35.05;39.40
54455;BME280;40364;52.270;10.546;2022-08-01T09:36:51;100614.06;;;33.94;41.16
54455;BME280;40364;52.270;10.546;2022-08-01T09:39:20;100620.94;;;33.62;42.49
54455;BME280;40364;52.270;10.546;2022-08-01T09:41:47;100611.41;;;35.72;37.88
54455;BME280;40364;52.270;10.546;2022-08-01T09:44:16;100614.34;;;35.77;36.75
54455;BME280;40364;52.270;10.546;2022-08-01T09:46:54;100614.81;;;35.70;36.24
54455;BME280;40364;52.270;10.546;2022-08-01T09:49:28;100628.28;;;33.98;40.38
54455;BME280;40364;52.270;10.546;2022-08-01T09:51:58;100623.81;;;35.09;37.28
54455;BME280;40364;52.270;10.546;2022-08-01T09:54:31;100618.34;;;33.29;40.98
54455;BME280;40364;52.270;10.546;2022-08-01T09:57:13;100620.88;;;34.11;39.85
54455;BME280;40364;52.270;10.546;2022-08-01T09:59:42;100622.91;;;33.21;41.99
54455;BME280;40364;52.270;10.546;2022-08-01T10:02:10;100623.25;;;34.13;39.27
54455;BME280;40364;52.270;10.546;2022-08-01T10:04:47;100627.34;;;34.93;37.63
54455;BME280;40364;52.270;10.546;2022-08-01T10:07:16;100646.66;;;39.41;31.01
54455;BME280;40364;52.270;10.546;2022-08-01T10:09:43;100632.56;;;38.27;32.31
54455;BME280;40364;52.270;10.546;2022-08-01T10:12:12;100635.72;;;41.20;28.71
54455;BME280;40364;52.270;10.546;2022-08-01T10:14:40;100649.09;;;39.01;30.29
54455;BME280;40364;52.270;10.546;2022-08-01T10:17:08;100643.34;;;38.44;31.44
54455;BME280;40364;52.270;10.546;2022-08-01T10:19:36;100636.84;;;38.15;32.23
54455;BME280;40364;52.270;10.546;2022-08-01T10:22:05;100638.84;;;33.31;39.63
54455;BME280;40364;52.270;10.546;2022-08-01T10:24:36;100643.19;;;33.26;39.22
54455;BME280;40364;52.270;10.546;2022-08-01T10:27:05;100636.28;;;32.65;40.28
54455;BME280;40364;52.270;10.546;2022-08-01T10:29:36;100649.81;;;33.97;38.15
54455;BME280;40364;52.270;10.546;2022-08-01T10:32:04;100644.53;;;32.57;42.02
54455;BME280;40364;52.270;10.546;2022-08-01T10:34:33;100647.03;;;35.15;37.83
54455;BME280;40364;52.270;10.546;2022-08-01T10:37:00;100649.94;;;32.79;42.26
54455;BME280;40364;52.270;10.546;2022-08-01T10:39:28;100663.00;;;34.38;39.26
54455;BME280;40364;52.270;10.546;2022-08-01T10:41:57;100659.50;;;33.59;40.53
54455;BME280;40364;52.270;10.546;2022-08-01T10:44:25;100661.00;;;32.95;42.00
54455;BME280;40364;52.270;10.546;2022-08-01T10:46:55;100663.09;;;32.95;41.79
54455;BME280;40364;52.270;10.546;2022-08-01T10:49:28;100660.31;;;34.55;37.32
54455;BME280;40364;52.270;10.546;2022-08-01T10:51:57;100661.75;;;34.04;37.48
54455;BME280;40364;52.270;10.546;2022-08-01T10:54:25;100656.13;;;33.16;38.93
54455;BME280;40364;52.270;10.546;2022-08-01T10:56:52;100659.41;;;35.84;34.41
54455;BME280;40364;52.270;10.546;2022-08-01T10:59:24;100657.81;;;37.63;31.86
54455;BME280;40364;52.270;10.546;2022-08-01T11:01:58;100652.25;;;37.15;30.86
54455;BME280;40364;52.270;10.546;2022-08-01T11:04:51;100651.97;;;36.20;31.84
54455;BME280;40364;52.270;10.546;2022-08-01T11:07:22;100653.84;;;34.66;34.31
54455;BME280;40364;52.270;10.546;2022-08-01T11:10:02;100644.72;;;35.93;33.40
54455;BME280;40364;52.270;10.546;2022-08-01T11:12:38;100652.88;;;36.37;32.76
54455;BME280;40364;52.270;10.546;2022-08-01T11:15:24;100658.59;;;36.97;32.68
54455;BME280;40364;52.270;10.546;2022-08-01T11:17:51;100661.16;;;33.80;36.39
54455;BME280;40364;52.270;10.546;2022-08-01T11:20:20;100670.56;;;33.01;37.64
54455;BME280;40364;52.270;10.546;2022-08-01T11:26:10;100664.06;;;35.07;34.22
54455;BME280;40364;52.270;10.546;2022-08-01T11:28:37;100670.56;;;35.02;34.80
54455;BME280;40364;52.270;10.546;2022-08-01T11:31:29;100662.66;;;34.31;35.71
54455;BME280;40364;52.270;10.546;2022-08-01T11:33:56;100659.00;;;35.02;33.94
54455;BME280;40364;52.270;10.546;2022-08-01T11:36:23;100667.56;;;33.10;37.92
54455;BME280;40364;52.270;10.546;2022-08-01T11:39:14;100670.34;;;33.99;35.73
54455;BME280;40364;52.270;10.546;2022-08-01T11:41:43;100674.56;;;34.18;35.16
54455;BME280;40364;52.270;10.546;2022-08-01T11:44:11;100672.66;;;34.56;34.97
54455;BME280;40364;52.270;10.546;2022-08-01T11:46:50;100669.75;;;33.95;35.39
54455;BME280;40364;52.270;10.546;2022-08-01T11:49:28;100674.09;;;34.86;34.25
54455;BME280;40364;52.270;10.546;2022-08-01T11:51:59;100677.88;;;34.11;35.49
54455;BME280;40364;52.270;10.546;2022-08-01T11:54:27;100678.16;;;35.26;34.34
54455;BME280;40364;52.270;10.546;2022-08-01T11:56:59;100680.34;;;35.99;33.05
54455;BME280;40364;52.270;10.546;2022-08-01T11:59:26;100684.94;;;36.23;32.71
54455;BME280;40364;52.270;10.546;2022-08-01T12:01:54;100684.38;;;36.67;31.32
54455;BME280;40364;52.270;10.546;2022-08-01T12:04:21;100688.94;;;36.25;31.98
54455;BME280;40364;52.270;10.546;2022-08-01T12:06:48;100686.88;;;36.42;32.61
54455;BME280;40364;52.270;10.546;2022-08-01T12:09:17;100680.16;;;36.68;32.13
54455;BME280;40364;52.270;10.546;2022-08-01T12:11:44;100682.44;;;36.53;31.98
54455;BME280;40364;52.270;10.546;2022-08-01T12:14:16;100683.66;;;37.95;30.14
54455;BME280;40364;52.270;10.546;2022-08-01T12:16:48;100678.97;;;39.43;27.51
54455;BME280;40364;52.270;10.546;2022-08-01T12:19:24;100667.84;;;37.18;30.13
54455;BME280;40364;52.270;10.546;2022-08-01T12:22:10;100685.84;;;37.55;29.56
54455;BME280;40364;52.270;10.546;2022-08-01T12:24:39;100680.50;;;38.73;28.15
54455;BME280;40364;52.270;10.546;2022-08-01T12:27:07;100681.06;;;37.91;29.80
54455;BME280;40364;52.270;10.546;2022-08-01T12:29:36;100683.22;;;36.48;31.26
54455;BME280;40364;52.270;10.546;2022-08-01T12:32:04;100676.44;;;36.62;32.02
54455;BME280;40364;52.270;10.546;2022-08-01T12:34:32;100679.44;;;38.76;29.33
54455;BME280;40364;52.270;10.546;2022-08-01T12:37:01;100674.91;;;40.30;26.76
54455;BME280;40364;52.270;10.546;2022-08-01T12:39:32;100685.00;;;40.29;26.39
54455;BME280;40364;52.270;10.546;2022-08-01T12:41:59;100685.59;;;39.73;26.76
54455;BME280;40364;52.270;10.546;2022-08-01T12:44:29;100682.28;;;36.79;30.82
54455;BME280;40364;52.270;10.546;2022-08-01T12:46:57;100674.78;;;36.38;31.56
54455;BME280;40364;52.270;10.546;2022-08-01T12:49:24;100683.44;;;38.67;28.38
54455;BME280;40364;52.270;10.546;2022-08-01T12:51:53;100687.44;;;38.59;28.16
54455;BME280;40364;52.270;10.546;2022-08-01T12:54:21;100679.22;;;37.55;29.21
54455;BME280;40364;52.270;10.546;2022-08-01T12:56:50;100687.25;;;38.40;27.73
54455;BME280;40364;52.270;10.546;2022-08-01T12:59:22;100686.88;;;37.74;28.46
54455;BME280;40364;52.270;10.546;2022-08-01T13:01:51;100692.94;;;35.91;31.17
54455;BME280;40364;52.270;10.546;2022-08-01T13:04:18;100689.19;;;37.03;29.74
54455;BME280;40364;52.270;10.546;2022-08-01T13:06:45;100694.56;;;37.27;29.25
54455;BME280;40364;52.270;10.546;2022-08-01T13:09:14;100692.44;;;38.69;27.80
54455;BME280;40364;52.270;10.546;2022-08-01T13:11:41;100691.94;;;36.53;30.24
54455;BME280;40364;52.270;10.546;2022-08-01T13:14:08;100681.34;;;37.54;28.50